NEODyS-2

Near Earth Objects - Dynamic Site
NEODyS ∴ Observatories ∴ Site 691 ∴ Obs & residuals
Contact »
691  ▹ 
OBSERVATIONS AND RESIDUALS

691-Steward Observatory, Kitt Peak-Spacewatch

Detections | Residuals | Detections & Residuals

[1-200] [201-400] [401-600] [601-800] [801-1000] [1001-1200] [1201-1400] [1401-1600] [1601-1800] [1801-2000] [2001-2200] [2201-2400] [2401-2600] [2601-2800] [2801-3000] [3001-3200] [3201-3400] [3401-3600] [3601-3800] [3801-4000] [4001-4200] [4201-4400] [4401-4600] [4601-4800] [4801-5000] [5001-5200] [5201-5400] [5401-5600] [5601-5800] [5801-6000] [6001-6200] [6201-6400] [6401-6600] [6601-6800] [6801-7000] [7001-7200] [7201-7400] [7401-7600] [7601-7800] [7801-8000] [8001-8200] [8201-8400] [8401-8600] [8601-8800] [8801-9000] [9001-9200] [9201-9400] [9401-9600] [9601-9800] [9801-10000] [10001-10200] [10201-10400] [10401-10600] [10601-10800] [10801-11000] [11001-11200] [11201-11400] [11401-11600] [11601-11800] [11801-12000] [12001-12200] [12201-12400] [12401-12600] [12601-12800] [12801-13000] [13001-13200] [13201-13400] [13401-13600] [13601-13800] [13801-14000] [14001-14200] [14201-14400] [14401-14600] [14601-14800] [14801-15000] [15001-15200] [15201-15400] [15401-15600] [15601-15800] [15801-16000] [16001-16200] [16201-16400] [16401-16600] [16601-16800] [16801-17000] [17001-17200] [17201-17400] [17401-17600] [17601-17800] [17801-18000] [18001-18200] [18201-18400] [18401-18600] [18601-18800] [18801-19000] [19001-19200] [19201-19400] [19401-19600] [19601-19800] [19801-20000] [20001-20200] [20201-20400] [20401-20600] [20601-20800] [20801-21000] [21001-21200] [21201-21400] [21401-21600] [21601-21800] [21801-22000] [22001-22200] [22201-22400] [22401-22600] [22601-22800] [22801-23000] [23001-23200] [23201-23400] [23401-23600] [23601-23800] [23801-24000] [24001-24200] [24201-24400] [24401-24600] [24601-24800] [24801-25000] [25001-25200] [25201-25400] [25401-25600] [25601-25800] [25801-26000] [26001-26200] [26201-26400] [26401-26600] [26601-26800] [26801-27000] [27001-27200] [27201-27400] [27401-27600] [27601-27800] [27801-28000] [28001-28200] [28201-28400] [28401-28600] [28601-28800] [28801-29000] [29001-29200] [29201-29400] [29401-29600] [29601-29800] [29801-30000] [30001-30200] [30201-30400] [30401-30600] [30601-30800] [30801-31000] [31001-31200] [31201-31400] [31401-31600] [31601-31800] [31801-32000] [32001-32200] [32201-32400] [32401-32600] [32601-32800] [32801-33000] [33001-33200] [33201-33400] [33401-33600] [33601-33800] [33801-34000] [34001-34200] [34201-34400] [34401-34600] [34601-34800] [34801-35000] [35001-35200] [35201-35400] [35401-35600] [35601-35800] [35801-36000] [36001-36200] [36201-36400] [36401-36600] [36601-36800] [36801-37000] [37001-37200] [37201-37400] [37401-37600] [37601-37800] [37801-38000] [38001-38200] [38201-38400] [38401-38600] [38601-38800] [38801-39000] [39001-39200] [39201-39400] [39401-39600] [39601-39800] [39801-40000] [40001-40200] [40201-40400] [40401-40600] [40601-40800] [40801-41000] [41001-41200] [41201-41400] [41401-41600] [41601-41800] [41801-42000] [42001-42200] [42201-42400] [42401-42600] [42601-42800] [42801-43000] [43001-43200] [43201-43400] [43401-43600] [43601-43800] [43801-44000] [44001-44200] [44201-44400] [44401-44600] [44601-44800] [44801-45000] [45001-45200] [45201-45400] [45401-45600] [45601-45800] [45801-46000] [46001-46200] [46201-46400] [46401-46600] [46601-46800] [46801-47000] [47001-47200] [47201-47400] [47401-47600] [47601-47800] [47801-48000] [48001-48200] [48201-48400] [48401-48600] [48601-48800] [48801-49000] [49001-49200] [49201-49400] [49401-49600] [49601-49800] [49801-50000] [50001-50200] [50201-50388]

Designation T Tech N Date Right Ascension Declination Apparent Magnitude Star Catalog Site code χ Used A Used M
yr-mo-day precision hr:min:sec precision rms F bias residual deg min sec precision rms F bias residual mag/col rms residual
2016RT1 O C H 2016-09-04.50455 1.000E-05 02:36:40.450 1.500E-01 0.500 F -0.139 0.725 +31° 55' 49.30" 1.000E-01 0.500 F 0.206 0.006 19.8 V 0.70 1.21 o 691 1.50 Yes Yes
2016PR26 O C 2016-09-04.50692 1.000E-05 23:23:32.480 1.500E-01 0.500 F -0.289 -0.331 -04° 11' 42.10" 1.000E-01 0.500 F 0.182 -0.383 19.5 V 0.70 0.39 o 691 1.04 Yes Yes
1991CS O C 2016-09-05.11593 1.000E-05 15:26:05.050 1.500E-01 0.500 F 0.169 -0.253 +14° 22' 05.60" 1.000E-01 0.500 F 0.171 -0.215 20.1 V 0.70 0.11 o 691 0.66 Yes Yes
2016QU1 O C H 2016-09-05.11803 1.000E-05 15:44:18.780 1.500E-01 0.500 F 0.140 0.624 +19° 49' 08.20" 1.000E-01 0.500 F 0.235 -0.553 20.9 V 0.70 0.45 o 691 1.69 Yes Yes
1991CS O C 2016-09-05.12280 1.000E-05 15:26:06.130 1.500E-01 0.500 F 0.169 -0.417 +14° 21' 52.40" 1.000E-01 0.500 F 0.171 -0.136 19.8 V 0.70 -0.19 o 691 0.88 Yes Yes
2016QU1 O C H 2016-09-05.12489 1.000E-05 15:44:16.500 1.500E-01 0.500 F 0.140 0.776 +19° 49' 01.10" 1.000E-01 0.500 F 0.235 -0.477 20.5 V 0.70 0.05 o 691 1.85 Yes Yes
1991CS O C 2016-09-05.12967 1.000E-05 15:26:07.230 1.500E-01 0.500 F 0.169 -0.299 +14° 21' 39.20" 1.000E-01 0.500 F 0.171 -0.055 19.8 V 0.70 -0.19 o 691 0.61 Yes Yes
2016QU1 O C H 2016-09-05.13176 1.000E-05 15:44:14.130 1.500E-01 0.500 F 0.140 -0.313 +19° 48' 53.40" 1.000E-01 0.500 F 0.235 -0.983 20.7 V 0.70 0.25 o 691 2.08 Yes Yes
2016PR38 O C 2016-09-05.14126 1.000E-05 20:21:00.690 1.500E-01 0.500 F 0.023 0.021 -08° 27' 11.00" 1.000E-01 0.500 F 0.313 -0.106 19.6 V 0.70 -0.16 o 691 0.22 Yes Yes
2016NG23 O C 2016-09-05.14474 1.000E-05 20:52:14.000 1.500E-01 0.500 F -0.004 -0.002 +06° 25' 36.00" 1.000E-01 0.500 F 0.262 -0.057 20.3 V 0.70 -0.01 o 691 0.11 Yes Yes
2016PR38 O C 2016-09-05.15178 1.000E-05 20:20:59.180 1.500E-01 0.500 F 0.023 -0.277 -08° 27' 26.80" 1.000E-01 0.500 F 0.313 -0.086 19.7 V 0.70 -0.06 o 691 0.59 Yes Yes
2016NG23 O C 2016-09-05.15530 1.000E-05 20:52:14.650 1.500E-01 0.500 F -0.004 -0.028 +06° 25' 32.60" 1.000E-01 0.500 F 0.262 0.074 20.4 V 0.70 0.09 o 691 0.16 Yes Yes
2016PR38 O C 2016-09-05.16235 1.000E-05 20:20:57.680 1.500E-01 0.500 F -0.016 -0.218 -08° 27' 42.70" 1.000E-01 0.500 F 0.227 -0.025 19.8 V 0.70 0.04 o 691 0.44 Yes Yes
2016NG23 O C 2016-09-05.16589 1.000E-05 20:52:15.300 1.500E-01 0.500 F -0.004 -0.042 +06° 25' 29.00" 1.000E-01 0.500 F 0.262 0.029 20.2 V 0.70 -0.11 o 691 0.10 Yes Yes
2016PJ66 O C H 2016-09-05.17461 1.000E-05 22:16:33.520 1.500E-01 0.500 F -0.118 0.714 -13° 00' 21.90" 1.000E-01 0.500 F 0.185 -0.684 21.0 V 0.70 1.29 o 691 2.00 Yes Yes
2016RV O C H 2016-09-05.17876 1.000E-05 21:52:42.130 1.500E-01 0.500 F -0.308 0.056 -19° 57' 25.80" 1.000E-01 0.500 F 0.128 0.080 18.9 V 0.70 0.44 o 691 0.20 Yes Yes
2016PJ66 O C H 2016-09-05.18530 1.000E-05 22:16:32.610 1.500E-01 0.500 F -0.118 0.415 -12° 59' 39.00" 1.000E-01 0.500 F 0.185 -0.283 20.8 V 0.70 1.09 o 691 1.02 Yes Yes
2016RV O C H 2016-09-05.18947 1.000E-05 21:52:50.220 1.500E-01 0.500 F -0.308 0.079 -19° 59' 32.00" 1.000E-01 0.500 F 0.128 -0.224 18.5 V 0.70 0.04 o 691 0.50 Yes Yes
2016PJ66 O C H 2016-09-05.19599 1.000E-05 22:16:31.700 1.500E-01 0.500 F -0.118 0.211 -12° 58' 56.30" 1.000E-01 0.500 F 0.185 -0.123 20.2 V 0.70 0.49 o 691 0.49 Yes Yes
2016PW38 O C H 2016-09-05.20527 1.000E-05 22:02:46.880 1.500E-01 0.500 F -0.113 0.227 -05° 43' 41.50" 1.000E-01 0.500 F 0.314 0.364 21.0 V 0.70 -0.04 o 691 0.87 Yes Yes
2016PW38 O C H 2016-09-05.21671 1.000E-05 22:02:47.810 1.500E-01 0.500 F -0.113 -0.521 -05° 44' 00.70" 1.000E-01 0.500 F 0.314 -0.233 21.2 V 0.70 0.16 o 691 1.16 Yes Yes
2016PP39 O C H 2016-09-05.21911 1.000E-05 22:05:25.680 1.500E-01 0.500 F -0.074 0.387 -02° 20' 33.90" 1.000E-01 0.500 F 0.254 -0.650 21.2 V 0.70 0.11 o 691 1.55 Yes Yes
2016PW38 O C H 2016-09-05.22823 1.000E-05 22:02:48.790 1.500E-01 0.500 F -0.113 -0.579 -05° 44' 19.10" 1.000E-01 0.500 F 0.314 0.083 21.0 V 0.70 -0.04 o 691 1.18 Yes Yes
2016PP39 O C H 2016-09-05.23063 1.000E-05 22:05:25.280 1.500E-01 0.500 F -0.074 0.276 -02° 19' 57.10" 1.000E-01 0.500 F 0.254 0.379 22.6 V 0.70 1.51 o 691 0.96 Yes Yes
2016QC84 O C 2016-09-05.23610 1.000E-05 22:31:42.290 1.500E-01 0.500 F -0.177 -0.138 -30° 26' 43.50" 1.000E-01 0.500 F 0.457 0.040 19.0 V 0.70 0.17 o 691 0.29 Yes Yes
2016QC84 O C 2016-09-05.24837 1.000E-05 22:31:39.210 1.500E-01 0.500 F -0.177 0.066 -30° 26' 30.50" 1.000E-01 0.500 F 0.457 -0.100 19.0 V 0.70 0.17 o 691 0.24 Yes Yes
2016QC84 O C 2016-09-05.26061 1.000E-05 22:31:36.100 1.500E-01 0.500 F -0.177 -0.160 -30° 26' 17.20" 1.000E-01 0.500 F 0.457 -0.002 19.0 V 0.70 0.17 o 691 0.32 Yes Yes
2013BN73 O C H 2016-09-05.29965 1.000E-05 21:28:37.320 1.500E-01 0.500 F 0.018 0.313 +12° 24' 11.30" 1.000E-01 0.500 F 0.263 -0.562 20.7 V 0.70 0.08 o 691 1.32 Yes Yes
2013BN73 O C H 2016-09-05.32121 1.000E-05 21:28:33.980 1.500E-01 0.500 F 0.018 -0.014 +12° 24' 47.80" 1.000E-01 0.500 F 0.263 -0.746 20.8 V 0.70 0.18 o 691 1.53 Yes Yes
2016QL44 O C H 2016-09-05.33759 1.000E-05 22:31:20.950 1.500E-01 0.500 F -0.092 0.173 -00° 04' 15.60" 1.000E-01 0.500 F 0.356 0.046 20.9 V 0.70 0.07 o 691 0.37 Yes Yes
2016QL44 O C H 2016-09-05.34659 1.000E-05 22:31:20.840 1.500E-01 0.500 F -0.092 0.030 -00° 04' 28.40" 1.000E-01 0.500 F 0.356 0.573 20.8 V 0.70 -0.03 o 691 1.18 Yes Yes
2016QL44 O C H 2016-09-05.35567 1.000E-05 22:31:20.740 1.500E-01 0.500 F -0.092 -0.033 -00° 04' 43.10" 1.000E-01 0.500 F 0.356 -0.661 20.7 V 0.70 -0.13 o 691 1.36 Yes Yes
2016RK17 O C H 2016-09-05.36021 1.000E-05 21:54:55.950 1.500E-01 0.500 F -0.133 -1.377 -02° 36' 06.70" 1.000E-01 0.500 F 0.228 -0.247 19.8 V 0.70 -0.01 o 691 2.90 Yes Yes
2016RN17 O C H 2016-09-05.36261 1.000E-05 22:04:01.660 1.500E-01 0.500 F -0.083 -0.666 -14° 22' 13.70" 1.000E-01 0.500 F 0.184 0.277 19.3 V 0.70 0.42 o 691 1.52 Yes Yes
2016RK17 O C H 2016-09-05.36507 1.000E-05 21:55:01.290 1.500E-01 0.500 F -0.133 0.555 -02° 36' 32.20" 1.000E-01 0.500 F 0.228 -0.839 o 691 2.09 Yes No
2016RK17 O C H 2016-09-05.36989 1.000E-05 21:55:06.480 1.500E-01 0.500 F -0.133 0.837 -02° 36' 56.90" 1.000E-01 0.500 F 0.228 -0.852 20.4 V 0.70 0.59 o 691 2.49 Yes Yes
2016RN17 O C H 2016-09-05.37231 1.000E-05 22:03:49.010 1.500E-01 0.500 F -0.083 0.418 -14° 18' 59.30" 1.000E-01 0.500 F 0.184 -0.564 19.2 V 0.70 0.32 o 691 1.48 Yes Yes
2016RO17 O C H 2016-09-05.37732 1.000E-05 21:25:00.930 1.500E-01 0.500 F 0.021 -0.061 +11° 55' 34.40" 1.000E-01 0.500 F 0.279 0.035 19.9 V 0.70 0.11 o 691 0.15 Yes Yes
2016RO17 O C H 2016-09-05.38475 1.000E-05 21:24:54.310 1.500E-01 0.500 F 0.021 1.143 +11° 56' 54.90" 1.000E-01 0.500 F 0.279 -0.439 21.1 V 0.70 1.31 o 691 2.56 Yes Yes
2016RO17 O C H 2016-09-05.39219 1.000E-05 21:24:47.520 1.500E-01 0.500 F 0.021 0.009 +11° 58' 16.10" 1.000E-01 0.500 F 0.279 -0.633 20.3 V 0.70 0.52 o 691 1.31 Yes Yes
2016RO1 O C H 2016-09-05.40010 1.000E-05 21:39:38.690 1.500E-01 0.500 F 0.013 0.002 +24° 41' 16.10" 1.000E-01 0.500 F 0.341 -0.316 21.3 V 0.70 0.71 o 691 0.63 Yes Yes
2016RO1 O C H 2016-09-05.41157 1.000E-05 21:39:37.310 1.500E-01 0.500 F 0.013 -0.788 +24° 41' 15.40" 1.000E-01 0.500 F 0.341 -0.122 21.6 V 0.70 1.01 o 691 1.60 Yes Yes
2016RO1 O C H 2016-09-05.42311 1.000E-05 21:39:36.040 1.500E-01 0.500 F 0.013 -0.025 +24° 41' 13.60" 1.000E-01 0.500 F 0.341 -1.003 o 691 2.01 Yes No
2016RA1 O C H 2016-09-05.44322 1.000E-05 22:55:45.080 1.500E-01 0.500 F -0.026 0.626 -02° 47' 55.10" 1.000E-01 0.500 F 0.387 -1.149 19.8 V 0.70 -0.16 o 691 2.77 Yes Yes
2016RA1 O C H 2016-09-05.44998 1.000E-05 22:55:50.710 1.500E-01 0.500 F -0.026 0.044 -02° 49' 08.20" 1.000E-01 0.500 F 0.387 -0.703 22.3 V 0.70 2.34 o 691 1.47 Yes No
2016RW1 O C H 2016-09-05.45494 1.000E-05 23:01:53.650 1.500E-01 0.500 F -0.054 0.836 -01° 06' 06.90" 1.000E-01 0.500 F 0.258 0.000 18.7 V 0.70 -0.41 o 691 1.84 Yes Yes
2016RW1 O C H 2016-09-05.46320 1.000E-05 23:02:08.850 1.500E-01 0.500 F -0.054 0.634 -01° 02' 16.20" 1.000E-01 0.500 F 0.258 0.034 19.4 V 0.70 0.28 o 691 1.40 Yes Yes
2016RU O C H 2016-09-05.47931 1.000E-05 01:15:29.590 1.500E-01 0.500 F -0.126 0.271 +00° 42' 21.80" 1.000E-01 0.500 F 0.250 -0.710 20.5 V 0.70 0.40 o 691 1.53 Yes Yes
2012TS78 O C 2016-09-05.47931 1.000E-05 01:16:11.310 1.500E-01 0.500 F -0.171 -0.827 +00° 16' 03.90" 1.000E-01 0.500 F 0.155 0.167 21.4 V 0.70 -0.13 o 691 1.69 Yes Yes
2016OJ1 O C H 2016-09-05.48301 1.000E-05 01:35:59.820 1.500E-01 0.500 F -0.105 -0.504 -19° 09' 18.30" 1.000E-01 0.500 F 0.097 -0.679 o 691 1.74 Yes No
2012TS78 O C 2016-09-05.48543 1.000E-05 01:16:10.740 1.500E-01 0.500 F -0.171 -0.488 +00° 16' 05.30" 1.000E-01 0.500 F 0.155 0.205 21.1 V 0.70 -0.43 o 691 1.06 Yes Yes
2016OJ1 O C H 2016-09-05.48922 1.000E-05 01:36:02.020 1.500E-01 0.500 F -0.105 -0.046 -19° 09' 07.30" 1.000E-01 0.500 F 0.097 -0.225 o 691 0.47 Yes No
2012TS78 O C 2016-09-05.49163 1.000E-05 01:16:10.130 1.500E-01 0.500 F -0.171 -0.636 +00° 16' 06.20" 1.000E-01 0.500 F 0.155 -0.274 21.0 V 0.70 -0.53 o 691 1.39 Yes Yes
2016RU O C H 2016-09-05.49163 1.000E-05 01:15:30.920 1.500E-01 0.500 F -0.126 0.698 +00° 41' 38.30" 1.000E-01 0.500 F 0.250 -0.930 19.9 V 0.70 -0.20 o 691 2.35 Yes Yes
2016OJ1 O C H 2016-09-05.49533 1.000E-05 01:36:04.120 1.500E-01 0.500 F -0.105 -0.541 -19° 08' 57.00" 1.000E-01 0.500 F 0.097 -0.323 o 691 1.31 Yes No
2016QD O C H 2016-09-05.49881 1.000E-05 03:24:24.740 1.500E-01 0.500 F -0.096 0.373 +06° 58' 19.90" 1.000E-01 0.500 F 0.282 -0.017 19.3 V 0.70 0.15 o 691 0.75 Yes Yes
2016QD O C H 2016-09-05.50110 1.000E-05 03:24:25.030 1.500E-01 0.500 F -0.096 0.018 +06° 58' 25.00" 1.000E-01 0.500 F 0.282 -0.261 19.4 V 0.70 0.25 o 691 0.53 Yes Yes
1991CS O C 2016-09-06.13116 1.000E-05 15:28:48.540 1.500E-01 0.500 F 0.183 -0.421 +13° 49' 27.00" 1.000E-01 0.500 F 0.227 0.125 19.7 V 0.70 -0.28 o 691 0.88 Yes Yes
2016QU1 O C H 2016-09-06.13344 1.000E-05 15:38:45.020 1.500E-01 0.500 F 0.176 0.567 +19° 31' 28.30" 1.000E-01 0.500 F 0.263 0.060 20.5 V 0.70 0.03 o 691 1.16 Yes Yes
2016LZ10 O C H 2016-09-06.14126 1.000E-05 20:18:21.170 1.500E-01 0.500 F 0.080 -0.268 +07° 54' 42.60" 1.000E-01 0.500 F 0.481 0.181 18.3 V 0.70 0.11 o 691 0.65 Yes Yes
1991CS O C 2016-09-06.14486 1.000E-05 15:28:50.770 1.500E-01 0.500 F 0.183 0.194 +13° 49' 00.30" 1.000E-01 0.500 F 0.227 0.004 19.9 V 0.70 -0.08 o 691 0.39 Yes Yes
2016QU1 O C H 2016-09-06.14719 1.000E-05 15:38:40.340 1.500E-01 0.500 F 0.176 -1.057 +19° 31' 13.40" 1.000E-01 0.500 F 0.263 0.058 20.8 V 0.70 0.33 o 691 2.15 Yes Yes
2016LZ10 O C H 2016-09-06.15542 1.000E-05 20:18:25.200 1.500E-01 0.500 F 0.018 -0.291 +07° 54' 37.00" 1.000E-01 0.500 F 0.443 0.232 18.3 V 0.70 0.11 o 691 0.75 Yes Yes
1991CS O C 2016-09-06.15901 1.000E-05 15:28:53.060 1.500E-01 0.500 F 0.183 0.595 +13° 48' 33.00" 1.000E-01 0.500 F 0.227 0.165 19.8 V 0.70 -0.18 o 691 1.24 Yes Yes
2016QU1 O C H 2016-09-06.16134 1.000E-05 15:38:35.770 1.500E-01 0.500 F 0.176 0.662 +19° 30' 58.30" 1.000E-01 0.500 F 0.263 0.318 20.8 V 0.70 0.33 o 691 1.49 Yes Yes
2016LZ10 O C H 2016-09-06.17016 1.000E-05 20:18:29.400 1.500E-01 0.500 F 0.018 -0.221 +07° 54' 31.30" 1.000E-01 0.500 F 0.443 0.426 18.4 V 0.70 0.21 o 691 0.96 Yes Yes
2016NG23 O C H 2016-09-06.17807 1.000E-05 20:53:29.310 1.500E-01 0.500 F 0.053 -0.586 +06° 19' 30.90" 1.000E-01 0.500 F 0.305 0.353 20.4 V 0.70 0.09 o 691 1.38 Yes Yes
2016NG23 O C H 2016-09-06.18477 1.000E-05 20:53:29.760 1.500E-01 0.500 F 0.053 -0.344 +06° 19' 27.80" 1.000E-01 0.500 F 0.305 -0.329 20.5 V 0.70 0.19 o 691 0.96 Yes Yes
2016NG23 O C H 2016-09-06.19159 1.000E-05 20:53:30.170 1.500E-01 0.500 F 0.053 -0.805 +06° 19' 25.40" 1.000E-01 0.500 F 0.305 -0.262 20.4 V 0.70 0.09 o 691 1.71 Yes Yes
2016RO17 O C H 2016-09-06.19758 1.000E-05 21:09:43.690 1.500E-01 0.500 F -0.040 -1.634 +15° 25' 40.00" 1.000E-01 0.500 F 0.417 -0.146 19.9 V 0.70 0.67 o 691 3.19 No Yes
2016RO17 O C H 2016-09-06.20298 1.000E-05 21:09:34.220 1.500E-01 0.500 F -0.040 0.133 +15° 27' 33.80" 1.000E-01 0.500 F 0.417 -0.903 19.3 V 0.70 0.08 o 691 1.88 Yes Yes
2016RO17 O C H 2016-09-06.20837 1.000E-05 21:09:24.630 1.500E-01 0.500 F -0.040 0.730 +15° 29' 28.80" 1.000E-01 0.500 F 0.417 -0.678 19.2 V 0.70 -0.02 o 691 2.04 Yes Yes
2013BN73 O C 2016-09-06.21618 1.000E-05 21:26:21.470 1.500E-01 0.500 F 0.018 -0.261 +12° 50' 12.30" 1.000E-01 0.500 F 0.263 0.071 20.5 V 0.70 -0.13 o 691 0.55 Yes Yes
2013BN73 O C 2016-09-06.22304 1.000E-05 21:26:20.420 1.500E-01 0.500 F 0.018 -0.152 +12° 50' 23.40" 1.000E-01 0.500 F 0.263 -0.484 20.5 V 0.70 -0.13 o 691 1.04 Yes Yes
2013BN73 O C 2016-09-06.23002 1.000E-05 21:26:19.340 1.500E-01 0.500 F 0.018 -0.207 +12° 50' 35.70" 1.000E-01 0.500 F 0.263 -0.036 20.6 V 0.70 -0.03 o 691 0.43 Yes Yes
2002NP1 O C 2016-09-06.25799 1.000E-05 21:39:50.120 1.500E-01 0.500 F 0.053 -0.007 +23° 51' 31.60" 1.000E-01 0.500 F 0.320 -0.073 17.0 V 0.70 -0.22 o 691 0.15 Yes Yes
2016RO1 O C H 2016-09-06.25799 1.000E-05 21:38:03.570 1.500E-01 0.500 F 0.056 -0.404 +24° 40' 19.10" 1.000E-01 0.500 F 0.340 -0.263 20.7 V 0.70 0.11 o 691 0.96 Yes Yes
2002NP1 O C 2016-09-06.26730 1.000E-05 21:39:48.110 1.500E-01 0.500 F 0.053 -0.243 +23° 51' 45.50" 1.000E-01 0.500 F 0.320 0.419 18.3 V 0.70 1.08 o 691 0.97 Yes Yes
2016RO1 O C H 2016-09-06.27652 1.000E-05 21:38:01.420 1.500E-01 0.500 F 0.056 -0.153 +24° 40' 17.50" 1.000E-01 0.500 F 0.340 -0.197 20.8 V 0.70 0.21 o 691 0.49 Yes Yes
2002NP1 O C 2016-09-06.27652 1.000E-05 21:39:46.150 1.500E-01 0.500 F 0.053 -0.067 +23° 51' 58.30" 1.000E-01 0.500 F 0.320 -0.024 17.1 V 0.70 -0.12 o 691 0.14 Yes Yes
2016PR38 O C 2016-09-06.29468 1.000E-05 20:18:34.550 1.500E-01 0.500 F -0.016 -0.330 -08° 56' 33.50" 1.000E-01 0.500 F 0.227 0.004 19.5 V 0.70 -0.23 o 691 0.67 Yes Yes
2016PR38 O C 2016-09-06.30074 1.000E-05 20:18:33.700 1.500E-01 0.500 F -0.016 -0.286 -08° 56' 43.00" 1.000E-01 0.500 F 0.227 -0.156 19.8 V 0.70 0.07 o 691 0.66 Yes Yes
2016PR38 O C 2016-09-06.30680 1.000E-05 20:18:32.860 1.500E-01 0.500 F -0.016 -0.133 -08° 56' 52.30" 1.000E-01 0.500 F 0.227 -0.122 19.7 V 0.70 -0.03 o 691 0.36 Yes Yes
2016PW38 O C H 2016-09-06.31643 1.000E-05 22:04:31.680 1.500E-01 0.500 F -0.166 0.140 -06° 13' 17.20" 1.000E-01 0.500 F 0.330 -0.155 21.1 V 0.70 0.01 o 691 0.42 Yes Yes
2016PW38 O C H 2016-09-06.32390 1.000E-05 22:04:32.310 1.500E-01 0.500 F -0.166 0.072 -06° 13' 28.60" 1.000E-01 0.500 F 0.330 0.162 21.0 V 0.70 -0.09 o 691 0.36 Yes Yes
2016PW38 O C H 2016-09-06.33135 1.000E-05 22:04:32.940 1.500E-01 0.500 F -0.166 0.011 -06° 13' 40.30" 1.000E-01 0.500 F 0.330 0.140 21.0 V 0.70 -0.09 o 691 0.29 Yes Yes
2016RA18 O C H 2016-09-06.34872 1.000E-05 23:39:11.060 1.500E-01 0.500 F -0.102 0.605 +20° 45' 43.30" 1.000E-01 0.500 F 0.291 -0.126 21.6 V 0.70 1.04 o 691 1.28 Yes Yes
2016RA18 O C H 2016-09-06.37127 1.000E-05 23:39:17.450 1.500E-01 0.500 F -0.102 0.331 +20° 45' 26.90" 1.000E-01 0.500 F 0.291 -0.542 20.8 V 0.70 0.24 o 691 1.31 Yes Yes
2016RA18 O C H 2016-09-06.38118 1.000E-05 23:39:20.250 1.500E-01 0.500 F -0.102 0.030 +20° 45' 20.70" 1.000E-01 0.500 F 0.291 0.405 20.8 V 0.70 0.24 o 691 0.84 Yes Yes
2016QF45 O C H 2016-09-06.38604 1.000E-05 23:50:20.790 1.500E-01 0.500 F -0.030 -0.233 +29° 52' 14.40" 1.000E-01 0.500 F 0.258 0.291 20.5 V 0.70 0.38 o 691 0.75 Yes Yes
2016QB2 O C H 2016-09-06.38884 1.000E-05 23:34:18.400 1.500E-01 0.500 F -0.079 -0.227 +05° 02' 56.20" 1.000E-01 0.500 F 0.224 -0.186 20.8 V 0.70 0.65 o 691 0.59 Yes Yes
2016QK44 O C H 2016-09-06.39128 1.000E-05 00:04:07.080 1.500E-01 0.500 F -0.201 -0.473 -09° 15' 17.80" 1.000E-01 0.500 F 0.191 0.001 21.1 V 0.70 0.09 o 691 0.96 Yes Yes
2009SU O C H 2016-09-06.39556 1.000E-05 00:51:01.630 1.500E-01 0.500 F -0.224 0.145 +11° 45' 18.30" 1.000E-01 0.500 F 0.296 -0.632 21.3 V 0.70 0.15 o 691 1.31 Yes Yes
2016QF45 O C H 2016-09-06.39967 1.000E-05 23:50:21.330 1.500E-01 0.500 F -0.030 0.103 +29° 53' 02.30" 1.000E-01 0.500 F 0.258 0.149 20.6 V 0.70 0.48 o 691 0.37 Yes Yes
2016QB2 O C H 2016-09-06.40300 1.000E-05 23:34:21.160 1.500E-01 0.500 F -0.079 0.380 +05° 02' 42.50" 1.000E-01 0.500 F 0.224 -0.124 20.5 V 0.70 0.35 o 691 0.81 Yes Yes
2016QK44 O C H 2016-09-06.40575 1.000E-05 00:04:09.200 1.500E-01 0.500 F -0.201 0.654 -09° 15' 40.80" 1.000E-01 0.500 F 0.191 -1.082 21.3 V 0.70 0.29 o 691 2.56 Yes Yes
2009SU O C H 2016-09-06.41032 1.000E-05 00:51:03.030 1.500E-01 0.500 F -0.224 -0.588 +11° 44' 45.20" 1.000E-01 0.500 F 0.296 1.266 20.9 V 0.70 -0.25 o 691 2.84 Yes Yes
2016QF45 O C H 2016-09-06.41320 1.000E-05 23:50:21.860 1.500E-01 0.500 F -0.030 0.291 +29° 53' 48.60" 1.000E-01 0.500 F 0.258 -1.184 o 691 2.48 Yes No
2016QB2 O C H 2016-09-06.41665 1.000E-05 23:34:23.840 1.500E-01 0.500 F -0.079 0.996 +05° 02' 28.20" 1.000E-01 0.500 F 0.224 -1.101 20.6 V 0.70 0.45 o 691 3.00 Yes Yes
2016QK44 O C H 2016-09-06.41961 1.000E-05 00:04:11.040 1.500E-01 0.500 F -0.201 -1.165 -09° 16' 01.20" 1.000E-01 0.500 F 0.191 -0.518 21.1 V 0.70 0.09 o 691 2.58 Yes Yes
2009SU O C H 2016-09-06.42407 1.000E-05 00:51:04.460 1.500E-01 0.500 F -0.224 0.553 +11° 44' 11.40" 1.000E-01 0.500 F 0.296 0.119 20.8 V 0.70 -0.35 o 691 1.16 Yes Yes
2016QR44 O C H 2016-09-06.42667 1.000E-05 01:16:20.530 1.500E-01 0.500 F -0.207 -0.673 +15° 39' 00.40" 1.000E-01 0.500 F 0.308 0.639 20.6 V 0.70 0.09 o 691 1.92 Yes Yes
2016PX66 O C 2016-09-06.43096 1.000E-05 01:19:03.470 1.500E-01 0.500 F -0.179 -0.172 +21° 59' 20.30" 1.000E-01 0.500 F 0.334 0.331 20.8 V 0.70 -0.18 o 691 0.75 Yes Yes
2016QR44 O C H 2016-09-06.43560 1.000E-05 01:16:21.210 1.500E-01 0.500 F -0.207 0.271 +15° 38' 24.40" 1.000E-01 0.500 F 0.308 -1.498 21.2 V 0.70 0.69 o 691 3.16 Yes Yes
2016PX66 O C 2016-09-06.43991 1.000E-05 01:19:02.560 1.500E-01 0.500 F -0.179 -0.530 +21° 59' 25.30" 1.000E-01 0.500 F 0.334 -0.176 20.8 V 0.70 -0.18 o 691 1.12 Yes Yes
2016QR44 O C H 2016-09-06.44452 1.000E-05 01:16:21.870 1.500E-01 0.500 F -0.207 0.910 +15° 37' 48.80" 1.000E-01 0.500 F 0.308 -3.238 o 691 6.50 No No
2016PX66 O C 2016-09-06.44822 1.000E-05 01:19:01.770 1.500E-01 0.500 F -0.179 -0.100 +21° 59' 30.00" 1.000E-01 0.500 F 0.334 -0.579 21.0 V 0.70 0.02 o 691 1.18 Yes Yes
2010EH43 O C H 2016-09-06.46157 1.000E-05 03:00:30.470 1.500E-01 0.500 F -0.226 -0.154 +15° 36' 30.90" 1.000E-01 0.500 F 0.338 -0.516 20.4 V 0.70 0.76 o 691 1.09 Yes Yes
2010EH43 O C H 2016-09-06.46912 1.000E-05 03:00:30.070 1.500E-01 0.500 F -0.226 0.851 +15° 36' 56.50" 1.000E-01 0.500 F 0.338 0.006 o 691 1.72 Yes No
2010EH43 O C H 2016-09-06.47609 1.000E-05 03:00:29.550 1.500E-01 0.500 F -0.226 -0.392 +15° 37' 19.40" 1.000E-01 0.500 F 0.338 -0.242 20.0 V 0.70 0.36 o 691 0.93 Yes Yes
2016RW19 O C H 2016-09-09.15545 1.000E-05 20:07:27.960 1.500E-01 0.500 F 0.071 -0.149 +02° 59' 53.00" 1.000E-01 0.500 F 0.178 -0.921 o 691 1.89 Yes No
2016RW19 O C H 2016-09-09.17215 1.000E-05 20:07:25.130 1.500E-01 0.500 F 0.071 -0.975 +02° 59' 45.50" 1.000E-01 0.500 F 0.178 -0.992 o 691 2.82 Yes No
2016LZ10 O C H 2016-09-09.18089 1.000E-05 20:33:31.380 1.500E-01 0.500 F 0.056 0.366 +07° 32' 00.30" 1.000E-01 0.500 F 0.253 -0.774 o 691 1.72 Yes No
2016NG23 O C H 2016-09-09.18285 1.000E-05 20:57:31.880 1.500E-01 0.500 F 0.040 0.679 +05° 59' 39.30" 1.000E-01 0.500 F 0.310 -0.549 o 691 1.76 Yes No
2016RW O C H 2016-09-09.18534 1.000E-05 21:15:21.560 1.500E-01 0.500 F 0.021 0.573 +28° 02' 06.60" 1.000E-01 0.500 F 0.204 -0.780 o 691 1.98 Yes No
2016LZ10 O C H 2016-09-09.18796 1.000E-05 20:33:33.330 1.500E-01 0.500 F 0.021 -0.224 +07° 31' 57.70" 1.000E-01 0.500 F 0.257 0.035 18.5 V 0.70 0.27 o 691 0.46 Yes Yes
2016NG23 O C H 2016-09-09.18992 1.000E-05 20:57:32.420 1.500E-01 0.500 F 0.040 0.747 +05° 59' 35.40" 1.000E-01 0.500 F 0.310 -1.463 o 691 3.26 No No
2016NG23 O C H 2016-09-09.19724 1.000E-05 20:57:32.860 1.500E-01 0.500 F 0.040 -0.953 +05° 59' 33.80" 1.000E-01 0.500 F 0.310 0.035 20.7 V 0.70 0.37 o 691 1.92 Yes Yes
2016RW O C H 2016-09-09.19973 1.000E-05 21:15:20.260 1.500E-01 0.500 F 0.021 0.708 +28° 02' 49.10" 1.000E-01 0.500 F 0.204 -1.026 o 691 2.55 Yes No
2016RQ19 O C m 2016-09-09.20569 1.000E-05 21:14:48.440 1.500E-01 0.500 F -0.004 0.307 +10° 23' 25.00" 1.000E-01 0.500 F 0.236 -0.533 21.5 V 0.70 0.28 o 691 1.26 Yes Yes
2016RQ19 O C m 2016-09-09.21466 1.000E-05 21:14:50.580 1.500E-01 0.500 F -0.004 -2.493 +10° 23' 41.40" 1.000E-01 0.500 F 0.236 -1.398 21.5 V 0.70 0.28 o 691 5.57 No Yes
2016RQ19 O C m 2016-09-09.22360 1.000E-05 21:14:53.120 1.500E-01 0.500 F -0.004 0.732 +10° 24' 01.00" 1.000E-01 0.500 F 0.236 1.028 21.6 V 0.70 0.38 o 691 2.59 Yes Yes
2016QE45 O C H 2016-09-09.32986 1.000E-05 00:02:52.610 1.500E-01 0.500 F -0.226 0.212 -10° 59' 27.50" 1.000E-01 0.500 F 0.210 -0.663 o 691 1.40 Yes No
2016RJ20 O C H 2016-09-09.33240 1.000E-05 00:31:28.540 1.500E-01 0.500 F -0.274 -0.002 -10° 52' 04.30" 1.000E-01 0.500 F 0.170 0.889 20.5 V 0.70 0.39 o 691 1.80 Yes Yes
2016QE45 O C H 2016-09-09.33727 1.000E-05 00:02:51.500 1.500E-01 0.500 F -0.226 0.407 -10° 59' 35.40" 1.000E-01 0.500 F 0.210 -0.039 20.5 V 0.70 -0.03 o 691 0.82 Yes Yes
2016RJ20 O C H 2016-09-09.33918 1.000E-05 00:31:23.870 1.500E-01 0.500 F -0.274 0.900 -10° 52' 35.00" 1.000E-01 0.500 F 0.170 -0.424 o 691 2.02 Yes No
2016QE45 O C H 2016-09-09.34405 1.000E-05 00:02:50.430 1.500E-01 0.500 F -0.226 -0.206 -10° 59' 43.60" 1.000E-01 0.500 F 0.210 -0.446 20.8 V 0.70 0.27 o 691 0.99 Yes Yes
2016RJ20 O C H 2016-09-09.34598 1.000E-05 00:31:19.050 1.500E-01 0.500 F -0.274 -0.224 -10° 53' 05.50" 1.000E-01 0.500 F 0.170 -1.497 o 691 3.07 Yes No
2016RR33 O C H 2016-09-09.35202 1.000E-05 00:37:26.380 1.500E-01 0.500 F -0.367 0.334 -14° 31' 57.10" 1.000E-01 0.500 F 0.165 -1.396 20.3 V 0.70 -0.15 o 691 2.88 Yes Yes
2016PN8 O C H 2016-09-09.35433 1.000E-05 01:17:09.770 1.500E-01 0.500 F -0.227 0.397 -12° 26' 45.70" 1.000E-01 0.500 F 0.141 -0.872 20.7 V 0.70 -0.23 o 691 1.93 Yes Yes
2016RR33 O C H 2016-09-09.35959 1.000E-05 00:37:25.730 1.500E-01 0.500 F -0.367 0.232 -14° 31' 57.80" 1.000E-01 0.500 F 0.165 -0.847 20.5 V 0.70 0.05 o 691 1.76 Yes Yes
2016PN8 O C H 2016-09-09.36189 1.000E-05 01:17:09.260 1.500E-01 0.500 F -0.227 -0.715 -12° 26' 42.30" 1.000E-01 0.500 F 0.141 -0.326 20.9 V 0.70 -0.02 o 691 1.58 Yes Yes
2016PN8 O C H 2016-09-09.36945 1.000E-05 01:17:08.880 1.500E-01 0.500 F -0.227 0.087 -12° 26' 39.10" 1.000E-01 0.500 F 0.141 0.012 21.1 V 0.70 0.18 o 691 0.18 Yes Yes
2016RU O C H 2016-09-09.37521 1.000E-05 01:22:45.600 1.500E-01 0.500 F -0.220 0.509 -03° 20' 10.20" 1.000E-01 0.500 F 0.097 -0.601 20.4 V 0.70 0.48 o 691 1.59 Yes Yes
2016RV19 O C H 2016-09-09.38196 1.000E-05 02:06:47.100 1.500E-01 0.500 F -0.251 0.465 -07° 43' 45.50" 1.000E-01 0.500 F 0.133 0.954 21.0 V 0.70 0.53 o 691 2.20 Yes Yes
2016RU O C H 2016-09-09.38385 1.000E-05 01:22:46.470 1.500E-01 0.500 F -0.220 -0.182 -03° 20' 43.50" 1.000E-01 0.500 F 0.097 0.275 20.2 V 0.70 0.28 o 691 0.66 Yes Yes
2016RV19 O C H 2016-09-09.39066 1.000E-05 02:06:50.370 1.500E-01 0.500 F -0.251 -0.655 -07° 42' 28.60" 1.000E-01 0.500 F 0.133 -0.230 20.6 V 0.70 0.12 o 691 1.44 Yes Yes
2016RU O C H 2016-09-09.39256 1.000E-05 01:22:47.390 1.500E-01 0.500 F -0.220 -0.230 -03° 21' 18.10" 1.000E-01 0.500 F 0.097 0.132 20.0 V 0.70 0.08 o 691 0.54 Yes Yes
2016RV19 O C H 2016-09-09.39940 1.000E-05 02:06:53.730 1.500E-01 0.500 F -0.251 -0.509 -07° 41' 10.50" 1.000E-01 0.500 F 0.133 -0.566 20.6 V 0.70 0.12 o 691 1.58 Yes Yes
2016PX66 O C H 2016-09-09.40724 1.000E-05 01:14:09.790 1.500E-01 0.500 F -0.205 0.305 +22° 28' 10.70" 1.000E-01 0.500 F 0.292 -0.013 20.7 V 0.70 -0.25 o 691 0.61 Yes Yes
2016QF44 O C H 2016-09-09.40959 1.000E-05 02:19:30.870 1.500E-01 0.500 F -0.257 0.070 +07° 11' 03.50" 1.000E-01 0.500 F 0.284 -0.309 20.8 V 0.70 -0.21 o 691 0.64 Yes Yes
2016PX66 O C H 2016-09-09.41460 1.000E-05 01:14:08.970 1.500E-01 0.500 F -0.205 -0.285 +22° 28' 14.10" 1.000E-01 0.500 F 0.292 -0.594 20.9 V 0.70 -0.05 o 691 1.32 Yes Yes
2016QF44 O C H 2016-09-09.41706 1.000E-05 02:19:32.160 1.500E-01 0.500 F -0.257 0.273 +07° 11' 06.50" 1.000E-01 0.500 F 0.284 -0.102 20.9 V 0.70 -0.11 o 691 0.59 Yes Yes
2016PX66 O C H 2016-09-09.42210 1.000E-05 01:14:08.200 1.500E-01 0.500 F -0.205 0.023 +22° 28' 18.70" 1.000E-01 0.500 F 0.292 -0.042 21.1 V 0.70 0.15 o 691 0.10 Yes Yes
2016QF44 O C H 2016-09-09.42447 1.000E-05 02:19:33.470 1.500E-01 0.500 F -0.257 0.932 +07° 11' 10.20" 1.000E-01 0.500 F 0.284 0.834 20.9 V 0.70 -0.11 o 691 2.52 Yes Yes
2010GR75 O C H 2016-09-09.44246 1.000E-05 03:00:42.680 1.500E-01 0.500 F -0.320 0.697 -24° 46' 03.90" 1.000E-01 0.500 F 0.355 0.479 21.1 V 0.70 0.25 o 691 1.78 Yes Yes
2010GR75 O C H 2016-09-09.45013 1.000E-05 03:00:43.760 1.500E-01 0.500 F -0.320 -0.291 -24° 46' 21.30" 1.000E-01 0.500 F 0.355 -0.404 21.0 V 0.70 0.15 o 691 1.04 Yes Yes
2010GR75 O C H 2016-09-09.45776 1.000E-05 03:00:44.890 1.500E-01 0.500 F -0.320 -0.517 -24° 46' 37.80" 1.000E-01 0.500 F 0.355 -0.482 20.9 V 0.70 0.05 o 691 1.48 Yes Yes
2016RS20 O C H 2016-09-09.47315 1.000E-05 00:53:14.350 1.500E-01 0.500 F -0.158 -1.344 +24° 24' 21.50" 1.000E-01 0.500 F 0.318 0.233 20.9 V 0.70 0.42 o 691 2.99 Yes Yes
2016RS20 O C H 2016-09-09.47905 1.000E-05 00:53:10.300 1.500E-01 0.500 F -0.158 1.586 +24° 24' 42.70" 1.000E-01 0.500 F 0.318 -0.981 20.7 V 0.70 0.22 o 691 3.48 No Yes
2016RS20 O C H 2016-09-09.48494 1.000E-05 00:53:05.890 1.500E-01 0.500 F -0.158 -0.591 +24° 25' 05.60" 1.000E-01 0.500 F 0.318 -0.399 20.7 V 0.70 0.22 o 691 1.58 Yes Yes
2016LM1 O C H 2016-09-09.49185 1.000E-05 05:10:39.030 1.500E-01 0.500 F -0.049 -0.042 -00° 09' 40.60" 1.000E-01 0.500 F 0.124 1.178 21.2 V 0.70 0.23 o 691 2.40 Yes Yes
2016LM1 O C H 2016-09-09.49696 1.000E-05 05:10:39.400 1.500E-01 0.500 F -0.049 -0.622 -00° 09' 37.40" 1.000E-01 0.500 F 0.124 -0.739 20.8 V 0.70 -0.17 o 691 1.97 Yes Yes
2016LM1 O C H 2016-09-09.50207 1.000E-05 05:10:39.880 1.500E-01 0.500 F -0.049 0.456 -00° 09' 32.00" 1.000E-01 0.500 F 0.124 -0.456 o 691 1.30 Yes No
2016QU1 O C m 2016-09-10.11511 1.000E-05 15:17:03.270 1.500E-01 0.500 F 0.107 0.314 +18° 16' 44.40" 1.000E-01 0.500 F 0.203 -0.161 20.6 V 0.70 0.02 o 691 0.72 Yes Yes
1998QQ O C 2016-09-10.12077 1.000E-05 20:13:41.010 1.500E-01 0.500 F -0.059 -0.162 -09° 55' 23.40" 1.000E-01 0.500 F 0.150 0.040 19.6 V 0.70 -0.24 o 691 0.34 Yes Yes
2016PR38 O C H 2016-09-10.12077 1.000E-05 20:10:31.560 1.500E-01 0.500 F -0.012 -0.108 -10° 45' 32.00" 1.000E-01 0.500 F 0.105 -0.007 19.9 V 0.70 0.26 o 691 0.22 Yes Yes
2016NG23 O C H 2016-09-10.12309 1.000E-05 20:58:55.200 1.500E-01 0.500 F 0.040 -0.105 +05° 52' 51.40" 1.000E-01 0.500 F 0.311 -0.009 20.6 V 0.70 0.27 o 691 0.21 Yes Yes
2016QU1 O C m 2016-09-10.12794 1.000E-05 15:16:58.990 1.500E-01 0.500 F 0.107 -0.240 +18° 16' 29.20" 1.000E-01 0.500 F 0.203 0.186 20.7 V 0.70 0.12 o 691 0.62 Yes Yes
1998QQ O C 2016-09-10.13459 1.000E-05 20:13:40.110 1.500E-01 0.500 F -0.059 -0.309 -09° 55' 11.90" 1.000E-01 0.500 F 0.150 -0.748 19.6 V 0.70 -0.24 o 691 1.62 Yes Yes
2016PR38 O C H 2016-09-10.13459 1.000E-05 20:10:29.530 1.500E-01 0.500 F -0.012 0.563 -10° 45' 57.10" 1.000E-01 0.500 F 0.105 0.822 19.5 V 0.70 -0.14 o 691 2.01 Yes Yes
2016NG23 O C H 2016-09-10.13692 1.000E-05 20:58:56.330 1.500E-01 0.500 F 0.040 0.141 +05° 52' 44.50" 1.000E-01 0.500 F 0.311 -0.909 20.4 V 0.70 0.07 o 691 1.85 Yes Yes
2016QU1 O C m 2016-09-10.14177 1.000E-05 15:16:54.370 1.500E-01 0.500 F 0.107 -1.009 +18° 16' 12.30" 1.000E-01 0.500 F 0.203 0.069 20.7 V 0.70 0.12 o 691 2.07 Yes Yes
1998QQ O C 2016-09-10.14709 1.000E-05 20:13:39.290 1.500E-01 0.500 F -0.059 -0.523 -09° 55' 00.20" 1.000E-01 0.500 F 0.150 -0.167 19.8 V 0.70 -0.04 o 691 1.10 Yes Yes
2016PR38 O C H 2016-09-10.14709 1.000E-05 20:10:27.600 1.500E-01 0.500 F -0.012 -0.113 -10° 46' 21.50" 1.000E-01 0.500 F 0.105 -0.172 19.8 V 0.70 0.16 o 691 0.41 Yes Yes
2016NG23 O C H 2016-09-10.14969 1.000E-05 20:58:57.350 1.500E-01 0.500 F 0.040 0.090 +05° 52' 39.80" 1.000E-01 0.500 F 0.311 -0.049 20.6 V 0.70 0.27 o 691 0.21 Yes Yes
2016LZ10 O C H 2016-09-10.15355 1.000E-05 20:38:20.710 1.500E-01 0.500 F 0.038 -0.166 +07° 23' 58.00" 1.000E-01 0.500 F 0.283 0.041 18.2 V 0.70 -0.04 o 691 0.34 Yes Yes
2016RO1 O C H 2016-09-10.15661 1.000E-05 21:30:57.990 1.500E-01 0.500 F 0.096 -0.223 +24° 29' 35.90" 1.000E-01 0.500 F 0.371 -0.101 20.4 V 0.70 -0.16 o 691 0.48 Yes Yes
2016LZ10 O C H 2016-09-10.16232 1.000E-05 20:38:23.200 1.500E-01 0.500 F 0.038 0.248 +07° 23' 53.60" 1.000E-01 0.500 F 0.283 0.015 18.3 V 0.70 0.06 o 691 0.50 Yes Yes
2016RO1 O C H 2016-09-10.16540 1.000E-05 21:30:57.060 1.500E-01 0.500 F 0.096 0.514 +24° 29' 33.30" 1.000E-01 0.500 F 0.371 -0.705 20.5 V 0.70 -0.06 o 691 1.76 Yes Yes
2016LZ10 O C H 2016-09-10.17118 1.000E-05 20:38:25.650 1.500E-01 0.500 F 0.038 -0.280 +07° 23' 49.20" 1.000E-01 0.500 F 0.283 0.051 18.2 V 0.70 -0.04 o 691 0.57 Yes Yes
2016RO1 O C H 2016-09-10.17428 1.000E-05 21:30:55.990 1.500E-01 0.500 F 0.096 -0.507 +24° 29' 31.90" 1.000E-01 0.500 F 0.371 -0.071 20.5 V 0.70 -0.06 o 691 1.02 Yes Yes
2016RM20 O C m 2016-09-10.19187 1.000E-05 21:51:33.310 1.500E-01 0.500 F 0.013 0.614 +24° 50' 33.50" 1.000E-01 0.500 F 0.365 0.081 o 691 1.35 Yes No
2016RM20 O C m 2016-09-10.20227 1.000E-05 21:51:35.140 1.500E-01 0.500 F 0.013 0.211 +24° 49' 28.20" 1.000E-01 0.500 F 0.378 0.114 o 691 0.51 Yes No
2016RM20 O C m 2016-09-10.21267 1.000E-05 21:51:37.000 1.500E-01 0.500 F 0.013 0.425 +24° 48' 22.40" 1.000E-01 0.500 F 0.378 0.118 20.9 V 0.70 0.29 o 691 0.94 Yes Yes
2016QJ44 O C H 2016-09-10.25091 1.000E-05 22:08:52.980 1.500E-01 0.500 F -0.053 0.060 -02° 14' 26.40" 1.000E-01 0.500 F 0.261 -0.234 21.5 V 0.70 0.53 o 691 0.49 Yes Yes
2016PJ66 O C H 2016-09-10.25303 1.000E-05 22:10:54.540 1.500E-01 0.500 F 0.039 0.070 -07° 06' 52.70" 1.000E-01 0.500 F 0.221 -0.090 20.1 V 0.70 0.33 o 691 0.23 Yes Yes
2016QC84 O C H 2016-09-10.25516 1.000E-05 22:10:19.600 1.500E-01 0.500 F -0.164 -0.003 -28° 29' 36.00" 1.000E-01 0.500 F 0.392 -0.072 19.3 V 0.70 0.62 o 691 0.15 Yes Yes
2016QJ44 O C H 2016-09-10.25759 1.000E-05 22:08:52.160 1.500E-01 0.500 F -0.053 0.612 -02° 14' 26.50" 1.000E-01 0.500 F 0.261 0.273 21.1 V 0.70 0.13 o 691 1.36 Yes Yes
2016PJ66 O C H 2016-09-10.25974 1.000E-05 22:10:54.010 1.500E-01 0.500 F 0.039 -0.015 -07° 06' 24.30" 1.000E-01 0.500 F 0.221 -0.620 20.2 V 0.70 0.43 o 691 1.26 Yes Yes
2016QC84 O C H 2016-09-10.26186 1.000E-05 22:10:17.680 1.500E-01 0.500 F -0.164 -0.287 -28° 29' 24.50" 1.000E-01 0.500 F 0.392 -0.115 19.0 V 0.70 0.32 o 691 0.62 Yes Yes
2016QJ44 O C H 2016-09-10.26428 1.000E-05 22:08:51.270 1.500E-01 0.500 F -0.053 0.133 -02° 14' 27.20" 1.000E-01 0.500 F 0.261 0.180 21.2 V 0.70 0.23 o 691 0.45 Yes Yes
2016PJ66 O C H 2016-09-10.26647 1.000E-05 22:10:53.490 1.500E-01 0.500 F 0.039 0.072 -07° 05' 54.70" 1.000E-01 0.500 F 0.221 -0.046 20.0 V 0.70 0.23 o 691 0.17 Yes Yes
2016QL44 O C H 2016-09-10.27103 1.000E-05 22:34:28.150 1.500E-01 0.500 F -0.093 -0.151 -03° 32' 13.20" 1.000E-01 0.500 F 0.225 -0.454 20.3 V 0.70 0.62 o 691 1.05 Yes Yes
2016QJ10 O C H 2016-09-10.27562 1.000E-05 23:04:49.680 1.500E-01 0.500 F -0.045 -0.259 +01° 07' 32.30" 1.000E-01 0.500 F 0.281 -0.269 20.2 V 0.70 0.30 o 691 0.76 Yes Yes
2016RP17 O C H 2016-09-10.27782 1.000E-05 23:51:27.520 1.500E-01 0.500 F -0.269 -0.143 -05° 45' 37.50" 1.000E-01 0.500 F 0.372 -0.151 o 691 0.42 Yes No
2010RQ30 O C 2016-09-10.27782 1.000E-05 23:52:52.670 1.500E-01 0.500 F -0.332 -0.894 -06° 30' 55.10" 1.000E-01 0.500 F 0.322 -0.208 20.5 V 0.70 0.02 o 691 1.84 Yes Yes
2016RZ40 O C 2016-09-10.27782 1.000E-05 23:54:21.680 1.500E-01 0.500 F -0.332 0.650 -06° 20' 46.70" 1.000E-01 0.500 F 0.322 -0.550 20.6 V 0.70 -0.02 o 691 1.71 Yes Yes
2016QL44 O C H 2016-09-10.28005 1.000E-05 22:34:28.300 1.500E-01 0.500 F -0.093 0.023 -03° 32' 50.70" 1.000E-01 0.500 F 0.225 0.393 20.2 V 0.70 0.52 o 691 0.87 Yes Yes
2016QJ10 O C H 2016-09-10.28470 1.000E-05 23:04:50.310 1.500E-01 0.500 F -0.045 -0.084 +01° 07' 31.60" 1.000E-01 0.500 F 0.281 -0.157 20.2 V 0.70 0.30 o 691 0.36 Yes Yes
2010RQ30 O C 2016-09-10.28689 1.000E-05 23:52:51.940 1.500E-01 0.500 F -0.332 -0.135 -06° 31' 01.70" 1.000E-01 0.500 F 0.322 -0.232 20.5 V 0.70 0.02 o 691 0.54 Yes Yes
2016RZ40 O C 2016-09-10.28689 1.000E-05 23:54:22.300 1.500E-01 0.500 F -0.332 -0.422 -06° 20' 41.50" 1.000E-01 0.500 F 0.322 -0.445 20.8 V 0.70 0.18 o 691 1.25 Yes Yes
2016RP17 O C H 2016-09-10.28689 1.000E-05 23:51:24.370 1.500E-01 0.500 F -0.269 0.677 -05° 45' 21.80" 1.000E-01 0.500 F 0.372 -0.855 o 691 2.21 Yes No
2016QL44 O C H 2016-09-10.28912 1.000E-05 22:34:28.420 1.500E-01 0.500 F -0.093 -0.271 -03° 33' 29.50" 1.000E-01 0.500 F 0.225 0.223 20.1 V 0.70 0.42 o 691 0.75 Yes Yes
2016QJ10 O C H 2016-09-10.29372 1.000E-05 23:04:50.940 1.500E-01 0.500 F -0.045 0.159 +01° 07' 30.60" 1.000E-01 0.500 F 0.281 -0.347 20.1 V 0.70 0.20 o 691 0.77 Yes Yes
2016RZ40 O C 2016-09-10.29593 1.000E-05 23:54:22.990 1.500E-01 0.500 F -0.332 -0.392 -06° 20' 36.30" 1.000E-01 0.500 F 0.322 -0.335 20.7 V 0.70 0.08 o 691 1.05 Yes Yes
2016RP17 O C H 2016-09-10.29593 1.000E-05 23:51:21.180 1.500E-01 0.500 F -0.269 0.717 -05° 45' 05.30" 1.000E-01 0.500 F 0.372 -0.696 o 691 2.03 Yes No
2010RQ30 O C 2016-09-10.29593 1.000E-05 23:52:51.180 1.500E-01 0.500 F -0.332 0.147 -06° 31' 08.20" 1.000E-01 0.500 F 0.322 -0.179 20.9 V 0.70 0.42 o 691 0.46 Yes Yes
2016QE45 O C H 2016-09-10.30248 1.000E-05 00:00:30.770 1.500E-01 0.500 F -0.245 -0.436 -11° 18' 27.10" 1.000E-01 0.500 F 0.207 0.102 20.7 V 0.70 0.27 o 691 0.90 Yes Yes
2016QE45 O C H 2016-09-10.30937 1.000E-05 00:00:29.710 1.500E-01 0.500 F -0.245 0.325 -11° 18' 36.20" 1.000E-01 0.500 F 0.207 -0.705 o 691 1.56 Yes No

[1-200] [201-400] [401-600] [601-800] [801-1000] [1001-1200] [1201-1400] [1401-1600] [1601-1800] [1801-2000] [2001-2200] [2201-2400] [2401-2600] [2601-2800] [2801-3000] [3001-3200] [3201-3400] [3401-3600] [3601-3800] [3801-4000] [4001-4200] [4201-4400] [4401-4600] [4601-4800] [4801-5000] [5001-5200] [5201-5400] [5401-5600] [5601-5800] [5801-6000] [6001-6200] [6201-6400] [6401-6600] [6601-6800] [6801-7000] [7001-7200] [7201-7400] [7401-7600] [7601-7800] [7801-8000] [8001-8200] [8201-8400] [8401-8600] [8601-8800] [8801-9000] [9001-9200] [9201-9400] [9401-9600] [9601-9800] [9801-10000] [10001-10200] [10201-10400] [10401-10600] [10601-10800] [10801-11000] [11001-11200] [11201-11400] [11401-11600] [11601-11800] [11801-12000] [12001-12200] [12201-12400] [12401-12600] [12601-12800] [12801-13000] [13001-13200] [13201-13400] [13401-13600] [13601-13800] [13801-14000] [14001-14200] [14201-14400] [14401-14600] [14601-14800] [14801-15000] [15001-15200] [15201-15400] [15401-15600] [15601-15800] [15801-16000] [16001-16200] [16201-16400] [16401-16600] [16601-16800] [16801-17000] [17001-17200] [17201-17400] [17401-17600] [17601-17800] [17801-18000] [18001-18200] [18201-18400] [18401-18600] [18601-18800] [18801-19000] [19001-19200] [19201-19400] [19401-19600] [19601-19800] [19801-20000] [20001-20200] [20201-20400] [20401-20600] [20601-20800] [20801-21000] [21001-21200] [21201-21400] [21401-21600] [21601-21800] [21801-22000] [22001-22200] [22201-22400] [22401-22600] [22601-22800] [22801-23000] [23001-23200] [23201-23400] [23401-23600] [23601-23800] [23801-24000] [24001-24200] [24201-24400] [24401-24600] [24601-24800] [24801-25000] [25001-25200] [25201-25400] [25401-25600] [25601-25800] [25801-26000] [26001-26200] [26201-26400] [26401-26600] [26601-26800] [26801-27000] [27001-27200] [27201-27400] [27401-27600] [27601-27800] [27801-28000] [28001-28200] [28201-28400] [28401-28600] [28601-28800] [28801-29000] [29001-29200] [29201-29400] [29401-29600] [29601-29800] [29801-30000] [30001-30200] [30201-30400] [30401-30600] [30601-30800] [30801-31000] [31001-31200] [31201-31400] [31401-31600] [31601-31800] [31801-32000] [32001-32200] [32201-32400] [32401-32600] [32601-32800] [32801-33000] [33001-33200] [33201-33400] [33401-33600] [33601-33800] [33801-34000] [34001-34200] [34201-34400] [34401-34600] [34601-34800] [34801-35000] [35001-35200] [35201-35400] [35401-35600] [35601-35800] [35801-36000] [36001-36200] [36201-36400] [36401-36600] [36601-36800] [36801-37000] [37001-37200] [37201-37400] [37401-37600] [37601-37800] [37801-38000] [38001-38200] [38201-38400] [38401-38600] [38601-38800] [38801-39000] [39001-39200] [39201-39400] [39401-39600] [39601-39800] [39801-40000] [40001-40200] [40201-40400] [40401-40600] [40601-40800] [40801-41000] [41001-41200] [41201-41400] [41401-41600] [41601-41800] [41801-42000] [42001-42200] [42201-42400] [42401-42600] [42601-42800] [42801-43000] [43001-43200] [43201-43400] [43401-43600] [43601-43800] [43801-44000] [44001-44200] [44201-44400] [44401-44600] [44601-44800] [44801-45000] [45001-45200] [45201-45400] [45401-45600] [45601-45800] [45801-46000] [46001-46200] [46201-46400] [46401-46600] [46601-46800] [46801-47000] [47001-47200] [47201-47400] [47401-47600] [47601-47800] [47801-48000] [48001-48200] [48201-48400] [48401-48600] [48601-48800] [48801-49000] [49001-49200] [49201-49400] [49401-49600] [49601-49800] [49801-50000] [50001-50200] [50201-50388]